sensor_id;sensor_type;location;lat;lon;timestamp;pressure;altitude;pressure_sealevel;temperature
18704;BMP180;9481;48.796;9.210;2022-10-16T00:01:20;96452.00;;;21.10
18704;BMP180;9481;48.796;9.210;2022-10-16T00:03:47;96458.00;;;21.10
18704;BMP180;9481;48.796;9.210;2022-10-16T00:06:16;96460.00;;;21.10
18704;BMP180;9481;48.796;9.210;2022-10-16T00:08:42;96442.00;;;21.10
18704;BMP180;9481;48.796;9.210;2022-10-16T00:11:21;96448.00;;;21.10
18704;BMP180;9481;48.796;9.210;2022-10-16T00:13:50;96460.00;;;21.10
18704;BMP180;9481;48.796;9.210;2022-10-16T00:16:18;96450.00;;;21.10
18704;BMP180;9481;48.796;9.210;2022-10-16T00:18:44;96454.00;;;21.20
18704;BMP180;9481;48.796;9.210;2022-10-16T00:21:14;96459.00;;;21.10
18704;BMP180;9481;48.796;9.210;2022-10-16T00:23:41;96449.00;;;21.10
18704;BMP180;9481;48.796;9.210;2022-10-16T00:26:11;96450.00;;;21.10
18704;BMP180;9481;48.796;9.210;2022-10-16T00:28:37;96459.00;;;21.10
18704;BMP180;9481;48.796;9.210;2022-10-16T00:31:06;96463.00;;;21.10
18704;BMP180;9481;48.796;9.210;2022-10-16T00:33:32;96458.00;;;21.10
18704;BMP180;9481;48.796;9.210;2022-10-16T00:36:00;96451.00;;;21.10
18704;BMP180;9481;48.796;9.210;2022-10-16T00:38:26;96457.00;;;21.10
18704;BMP180;9481;48.796;9.210;2022-10-16T00:40:52;96448.00;;;21.10
18704;BMP180;9481;48.796;9.210;2022-10-16T00:43:40;96442.00;;;21.00
18704;BMP180;9481;48.796;9.210;2022-10-16T00:49:04;96457.00;;;21.00
18704;BMP180;9481;48.796;9.210;2022-10-16T00:51:45;96463.00;;;21.00
18704;BMP180;9481;48.796;9.210;2022-10-16T00:54:30;96448.00;;;21.00
18704;BMP180;9481;48.796;9.210;2022-10-16T00:57:01;96445.00;;;21.00
18704;BMP180;9481;48.796;9.210;2022-10-16T00:59:37;96450.00;;;20.90
18704;BMP180;9481;48.796;9.210;2022-10-16T01:02:05;96458.00;;;21.00
18704;BMP180;9481;48.796;9.210;2022-10-16T01:04:52;96460.00;;;20.90
18704;BMP180;9481;48.796;9.210;2022-10-16T01:10:39;96458.00;;;20.90
18704;BMP180;9481;48.796;9.210;2022-10-16T01:13:10;96474.00;;;20.90
18704;BMP180;9481;48.796;9.210;2022-10-16T01:15:54;96486.00;;;20.90
18704;BMP180;9481;48.796;9.210;2022-10-16T01:21:22;96479.00;;;20.80
18704;BMP180;9481;48.796;9.210;2022-10-16T01:24:08;96475.00;;;20.80
18704;BMP180;9481;48.796;9.210;2022-10-16T01:27:04;96484.00;;;20.80
18704;BMP180;9481;48.796;9.210;2022-10-16T01:32:32;96460.00;;;20.80
18704;BMP180;9481;48.796;9.210;2022-10-16T01:35:21;96462.00;;;20.80
18704;BMP180;9481;48.796;9.210;2022-10-16T01:37:55;96474.00;;;20.80
18704;BMP180;9481;48.796;9.210;2022-10-16T01:40:25;96475.00;;;20.80
18704;BMP180;9481;48.796;9.210;2022-10-16T01:43:13;96454.00;;;20.70
18704;BMP180;9481;48.796;9.210;2022-10-16T01:45:44;96456.00;;;20.80
18704;BMP180;9481;48.796;9.210;2022-10-16T01:48:14;96457.00;;;20.80
18704;BMP180;9481;48.796;9.210;2022-10-16T01:50:56;96461.00;;;20.80
18704;BMP180;9481;48.796;9.210;2022-10-16T01:53:23;96461.00;;;20.80
18704;BMP180;9481;48.796;9.210;2022-10-16T01:55:52;96461.00;;;20.80
18704;BMP180;9481;48.796;9.210;2022-10-16T01:58:21;96457.00;;;20.80
18704;BMP180;9481;48.796;9.210;2022-10-16T02:00:48;96463.00;;;20.80
18704;BMP180;9481;48.796;9.210;2022-10-16T02:03:18;96455.00;;;20.80
18704;BMP180;9481;48.796;9.210;2022-10-16T02:05:55;96452.00;;;20.80
18704;BMP180;9481;48.796;9.210;2022-10-16T02:08:24;96444.00;;;20.80
18704;BMP180;9481;48.796;9.210;2022-10-16T02:10:51;96446.00;;;20.80
18704;BMP180;9481;48.796;9.210;2022-10-16T02:13:25;96439.00;;;20.80
18704;BMP180;9481;48.796;9.210;2022-10-16T02:15:52;96442.00;;;20.80
18704;BMP180;9481;48.796;9.210;2022-10-16T02:18:18;96458.00;;;20.80
18704;BMP180;9481;48.796;9.210;2022-10-16T02:21:01;96461.00;;;20.80
18704;BMP180;9481;48.796;9.210;2022-10-16T02:23:59;96456.00;;;20.80
18704;BMP180;9481;48.796;9.210;2022-10-16T02:26:42;96466.00;;;20.80
18704;BMP180;9481;48.796;9.210;2022-10-16T02:29:14;96466.00;;;20.80
18704;BMP180;9481;48.796;9.210;2022-10-16T02:31:47;96465.00;;;20.80
18704;BMP180;9481;48.796;9.210;2022-10-16T02:34:18;96461.00;;;20.80
18704;BMP180;9481;48.796;9.210;2022-10-16T02:36:47;96455.00;;;20.80
18704;BMP180;9481;48.796;9.210;2022-10-16T02:39:15;96445.00;;;20.70
18704;BMP180;9481;48.796;9.210;2022-10-16T02:41:42;96445.00;;;20.80
18704;BMP180;9481;48.796;9.210;2022-10-16T02:44:08;96442.00;;;20.70
18704;BMP180;9481;48.796;9.210;2022-10-16T02:46:33;96447.00;;;20.70
18704;BMP180;9481;48.796;9.210;2022-10-16T02:48:59;96441.00;;;20.70
18704;BMP180;9481;48.796;9.210;2022-10-16T02:51:24;96456.00;;;20.70
18704;BMP180;9481;48.796;9.210;2022-10-16T02:53:50;96452.00;;;20.70
18704;BMP180;9481;48.796;9.210;2022-10-16T02:56:16;96462.00;;;20.70
18704;BMP180;9481;48.796;9.210;2022-10-16T02:58:41;96461.00;;;20.70
18704;BMP180;9481;48.796;9.210;2022-10-16T03:01:07;96476.00;;;20.70
18704;BMP180;9481;48.796;9.210;2022-10-16T03:03:33;96469.00;;;20.70
18704;BMP180;9481;48.796;9.210;2022-10-16T03:05:59;96476.00;;;20.70
18704;BMP180;9481;48.796;9.210;2022-10-16T03:08:24;96469.00;;;20.70
18704;BMP180;9481;48.796;9.210;2022-10-16T03:10:51;96476.00;;;20.70
18704;BMP180;9481;48.796;9.210;2022-10-16T03:13:17;96471.00;;;20.70
18704;BMP180;9481;48.796;9.210;2022-10-16T03:15:43;96457.00;;;20.70
18704;BMP180;9481;48.796;9.210;2022-10-16T03:18:09;96457.00;;;20.60
18704;BMP180;9481;48.796;9.210;2022-10-16T03:20:35;96466.00;;;20.70
18704;BMP180;9481;48.796;9.210;2022-10-16T03:23:00;96467.00;;;20.70
18704;BMP180;9481;48.796;9.210;2022-10-16T03:25:27;96458.00;;;20.70
18704;BMP180;9481;48.796;9.210;2022-10-16T03:27:53;96460.00;;;20.70
18704;BMP180;9481;48.796;9.210;2022-10-16T03:30:19;96465.00;;;20.70
18704;BMP180;9481;48.796;9.210;2022-10-16T03:32:45;96460.00;;;20.70
18704;BMP180;9481;48.796;9.210;2022-10-16T03:35:10;96467.00;;;20.70
18704;BMP180;9481;48.796;9.210;2022-10-16T03:37:36;96463.00;;;20.70
18704;BMP180;9481;48.796;9.210;2022-10-16T03:40:03;96462.00;;;20.70
18704;BMP180;9481;48.796;9.210;2022-10-16T03:42:29;96462.00;;;20.70
18704;BMP180;9481;48.796;9.210;2022-10-16T03:44:55;96480.00;;;20.70
18704;BMP180;9481;48.796;9.210;2022-10-16T03:47:21;96468.00;;;20.70
18704;BMP180;9481;48.796;9.210;2022-10-16T03:49:49;96467.00;;;20.70
18704;BMP180;9481;48.796;9.210;2022-10-16T03:52:16;96470.00;;;20.70
18704;BMP180;9481;48.796;9.210;2022-10-16T03:54:41;96469.00;;;20.70
18704;BMP180;9481;48.796;9.210;2022-10-16T03:57:07;96479.00;;;20.70
18704;BMP180;9481;48.796;9.210;2022-10-16T03:59:33;96484.00;;;20.70
18704;BMP180;9481;48.796;9.210;2022-10-16T04:01:58;96478.00;;;20.70
18704;BMP180;9481;48.796;9.210;2022-10-16T04:04:24;96480.00;;;20.60
18704;BMP180;9481;48.796;9.210;2022-10-16T04:06:50;96466.00;;;20.70
18704;BMP180;9481;48.796;9.210;2022-10-16T04:09:16;96473.00;;;20.70
18704;BMP180;9481;48.796;9.210;2022-10-16T04:11:42;96462.00;;;20.60
18704;BMP180;9481;48.796;9.210;2022-10-16T04:14:08;96467.00;;;20.70
18704;BMP180;9481;48.796;9.210;2022-10-16T04:16:34;96480.00;;;20.60
18704;BMP180;9481;48.796;9.210;2022-10-16T04:18:59;96486.00;;;20.70
18704;BMP180;9481;48.796;9.210;2022-10-16T04:21:26;96486.00;;;20.70
18704;BMP180;9481;48.796;9.210;2022-10-16T04:23:52;96480.00;;;20.60
18704;BMP180;9481;48.796;9.210;2022-10-16T04:26:17;96476.00;;;20.60
18704;BMP180;9481;48.796;9.210;2022-10-16T04:28:43;96487.00;;;20.60
18704;BMP180;9481;48.796;9.210;2022-10-16T04:31:09;96473.00;;;20.60
18704;BMP180;9481;48.796;9.210;2022-10-16T04:33:35;96470.00;;;20.60
18704;BMP180;9481;48.796;9.210;2022-10-16T04:36:02;96478.00;;;20.60
18704;BMP180;9481;48.796;9.210;2022-10-16T04:38:29;96471.00;;;20.60
18704;BMP180;9481;48.796;9.210;2022-10-16T04:40:54;96480.00;;;20.60
18704;BMP180;9481;48.796;9.210;2022-10-16T04:43:21;96488.00;;;20.60
18704;BMP180;9481;48.796;9.210;2022-10-16T04:45:47;96487.00;;;20.60
18704;BMP180;9481;48.796;9.210;2022-10-16T04:48:12;96492.00;;;20.60
18704;BMP180;9481;48.796;9.210;2022-10-16T04:50:38;96490.00;;;20.60
18704;BMP180;9481;48.796;9.210;2022-10-16T04:53:05;96496.00;;;20.60
18704;BMP180;9481;48.796;9.210;2022-10-16T04:55:30;96494.00;;;20.60
18704;BMP180;9481;48.796;9.210;2022-10-16T04:57:56;96494.00;;;20.60
18704;BMP180;9481;48.796;9.210;2022-10-16T05:00:22;96505.00;;;20.60
18704;BMP180;9481;48.796;9.210;2022-10-16T05:02:50;96507.00;;;20.60
18704;BMP180;9481;48.796;9.210;2022-10-16T05:05:16;96506.00;;;20.60
18704;BMP180;9481;48.796;9.210;2022-10-16T05:07:42;96514.00;;;20.60
18704;BMP180;9481;48.796;9.210;2022-10-16T05:10:08;96514.00;;;20.60
18704;BMP180;9481;48.796;9.210;2022-10-16T05:12:33;96508.00;;;20.60
18704;BMP180;9481;48.796;9.210;2022-10-16T05:14:59;96511.00;;;20.60
18704;BMP180;9481;48.796;9.210;2022-10-16T05:17:26;96517.00;;;20.60
18704;BMP180;9481;48.796;9.210;2022-10-16T05:19:51;96518.00;;;20.60
18704;BMP180;9481;48.796;9.210;2022-10-16T05:22:18;96515.00;;;20.60
18704;BMP180;9481;48.796;9.210;2022-10-16T05:24:44;96509.00;;;20.60
18704;BMP180;9481;48.796;9.210;2022-10-16T05:27:10;96502.00;;;20.60
18704;BMP180;9481;48.796;9.210;2022-10-16T05:29:36;96503.00;;;20.60
18704;BMP180;9481;48.796;9.210;2022-10-16T05:32:02;96508.00;;;20.60
18704;BMP180;9481;48.796;9.210;2022-10-16T05:34:28;96503.00;;;20.60
18704;BMP180;9481;48.796;9.210;2022-10-16T05:36:53;96507.00;;;20.50
18704;BMP180;9481;48.796;9.210;2022-10-16T05:39:19;96515.00;;;20.50
18704;BMP180;9481;48.796;9.210;2022-10-16T05:41:45;96513.00;;;20.50
18704;BMP180;9481;48.796;9.210;2022-10-16T05:44:11;96526.00;;;20.50
18704;BMP180;9481;48.796;9.210;2022-10-16T05:46:37;96528.00;;;20.50
18704;BMP180;9481;48.796;9.210;2022-10-16T05:49:03;96520.00;;;20.50
18704;BMP180;9481;48.796;9.210;2022-10-16T05:51:28;96524.00;;;20.50
18704;BMP180;9481;48.796;9.210;2022-10-16T05:53:54;96528.00;;;20.50
18704;BMP180;9481;48.796;9.210;2022-10-16T05:56:20;96520.00;;;20.50
18704;BMP180;9481;48.796;9.210;2022-10-16T05:58:45;96526.00;;;20.50
18704;BMP180;9481;48.796;9.210;2022-10-16T06:01:16;96533.00;;;20.50
18704;BMP180;9481;48.796;9.210;2022-10-16T06:03:42;96537.00;;;20.50
18704;BMP180;9481;48.796;9.210;2022-10-16T06:06:18;96534.00;;;20.50
18704;BMP180;9481;48.796;9.210;2022-10-16T06:08:45;96554.00;;;20.50
18704;BMP180;9481;48.796;9.210;2022-10-16T06:11:18;96543.00;;;20.50
18704;BMP180;9481;48.796;9.210;2022-10-16T06:13:44;96541.00;;;20.60
18704;BMP180;9481;48.796;9.210;2022-10-16T06:16:12;96555.00;;;20.60
18704;BMP180;9481;48.796;9.210;2022-10-16T06:18:39;96560.00;;;20.70
18704;BMP180;9481;48.796;9.210;2022-10-16T06:21:14;96556.00;;;20.70
18704;BMP180;9481;48.796;9.210;2022-10-16T06:23:41;96558.00;;;20.80
18704;BMP180;9481;48.796;9.210;2022-10-16T06:26:10;96563.00;;;20.80
18704;BMP180;9481;48.796;9.210;2022-10-16T06:28:37;96565.00;;;20.90
18704;BMP180;9481;48.796;9.210;2022-10-16T06:31:05;96569.00;;;20.90
18704;BMP180;9481;48.796;9.210;2022-10-16T06:33:31;96559.00;;;20.90
18704;BMP180;9481;48.796;9.210;2022-10-16T06:36:11;96565.00;;;20.80
18704;BMP180;9481;48.796;9.210;2022-10-16T06:38:38;96566.00;;;20.90
18704;BMP180;9481;48.796;9.210;2022-10-16T06:41:06;96555.00;;;20.90
18704;BMP180;9481;48.796;9.210;2022-10-16T06:43:33;96561.00;;;20.90
18704;BMP180;9481;48.796;9.210;2022-10-16T06:46:01;96572.00;;;20.90
18704;BMP180;9481;48.796;9.210;2022-10-16T06:48:28;96572.00;;;21.00
18704;BMP180;9481;48.796;9.210;2022-10-16T06:51:03;96581.00;;;21.00
18704;BMP180;9481;48.796;9.210;2022-10-16T06:53:33;96588.00;;;21.00
18704;BMP180;9481;48.796;9.210;2022-10-16T06:56:12;96594.00;;;21.00
18704;BMP180;9481;48.796;9.210;2022-10-16T06:58:38;96595.00;;;21.10
18704;BMP180;9481;48.796;9.210;2022-10-16T07:01:04;96594.00;;;21.10
18704;BMP180;9481;48.796;9.210;2022-10-16T07:03:30;96597.00;;;21.10
18704;BMP180;9481;48.796;9.210;2022-10-16T07:05:56;96598.00;;;21.10
18704;BMP180;9481;48.796;9.210;2022-10-16T07:08:22;96600.00;;;21.10
18704;BMP180;9481;48.796;9.210;2022-10-16T07:10:47;96595.00;;;21.10
18704;BMP180;9481;48.796;9.210;2022-10-16T07:13:13;96614.00;;;21.10
18704;BMP180;9481;48.796;9.210;2022-10-16T07:15:40;96608.00;;;21.10
18704;BMP180;9481;48.796;9.210;2022-10-16T07:18:07;96622.00;;;21.10
18704;BMP180;9481;48.796;9.210;2022-10-16T07:20:33;96615.00;;;21.10
18704;BMP180;9481;48.796;9.210;2022-10-16T07:22:58;96630.00;;;21.10
18704;BMP180;9481;48.796;9.210;2022-10-16T07:25:24;96634.00;;;21.10
18704;BMP180;9481;48.796;9.210;2022-10-16T07:27:49;96629.00;;;21.10
18704;BMP180;9481;48.796;9.210;2022-10-16T07:30:15;96645.00;;;21.10
18704;BMP180;9481;48.796;9.210;2022-10-16T07:32:41;96645.00;;;21.10
18704;BMP180;9481;48.796;9.210;2022-10-16T07:35:07;96657.00;;;21.10
18704;BMP180;9481;48.796;9.210;2022-10-16T07:37:33;96647.00;;;21.10
18704;BMP180;9481;48.796;9.210;2022-10-16T07:39:59;96654.00;;;21.10
18704;BMP180;9481;48.796;9.210;2022-10-16T07:42:24;96652.00;;;21.10
18704;BMP180;9481;48.796;9.210;2022-10-16T07:44:50;96644.00;;;21.10
18704;BMP180;9481;48.796;9.210;2022-10-16T07:47:16;96656.00;;;21.10
18704;BMP180;9481;48.796;9.210;2022-10-16T07:49:41;96649.00;;;21.10
18704;BMP180;9481;48.796;9.210;2022-10-16T07:52:07;96655.00;;;21.20
18704;BMP180;9481;48.796;9.210;2022-10-16T07:54:32;96662.00;;;21.20
18704;BMP180;9481;48.796;9.210;2022-10-16T07:56:58;96659.00;;;21.20
18704;BMP180;9481;48.796;9.210;2022-10-16T07:59:24;96664.00;;;21.20
18704;BMP180;9481;48.796;9.210;2022-10-16T08:01:49;96678.00;;;21.20
18704;BMP180;9481;48.796;9.210;2022-10-16T08:04:15;96686.00;;;21.30
18704;BMP180;9481;48.796;9.210;2022-10-16T08:06:41;96675.00;;;21.30
18704;BMP180;9481;48.796;9.210;2022-10-16T08:09:08;96676.00;;;21.30
18704;BMP180;9481;48.796;9.210;2022-10-16T08:11:34;96687.00;;;21.30
18704;BMP180;9481;48.796;9.210;2022-10-16T08:13:59;96685.00;;;21.30
18704;BMP180;9481;48.796;9.210;2022-10-16T08:16:25;96691.00;;;21.30
18704;BMP180;9481;48.796;9.210;2022-10-16T08:18:51;96686.00;;;21.40
18704;BMP180;9481;48.796;9.210;2022-10-16T08:21:20;96688.00;;;21.40
18704;BMP180;9481;48.796;9.210;2022-10-16T08:23:46;96672.00;;;21.40
18704;BMP180;9481;48.796;9.210;2022-10-16T08:26:12;96684.00;;;21.50
18704;BMP180;9481;48.796;9.210;2022-10-16T08:28:38;96685.00;;;21.50
18704;BMP180;9481;48.796;9.210;2022-10-16T08:31:11;96694.00;;;21.60
18704;BMP180;9481;48.796;9.210;2022-10-16T08:33:38;96692.00;;;21.70
18704;BMP180;9481;48.796;9.210;2022-10-16T08:36:06;96698.00;;;21.70
18704;BMP180;9481;48.796;9.210;2022-10-16T08:38:33;96701.00;;;21.70
18704;BMP180;9481;48.796;9.210;2022-10-16T08:46:42;96714.00;;;21.80
18704;BMP180;9481;48.796;9.210;2022-10-16T08:49:12;96705.00;;;21.80
18704;BMP180;9481;48.796;9.210;2022-10-16T08:51:42;96711.00;;;21.90
18704;BMP180;9481;48.796;9.210;2022-10-16T08:54:29;96703.00;;;21.80
18704;BMP180;9481;48.796;9.210;2022-10-16T08:57:04;96702.00;;;21.90
18704;BMP180;9481;48.796;9.210;2022-10-16T08:59:32;96711.00;;;21.90
18704;BMP180;9481;48.796;9.210;2022-10-16T09:01:58;96726.00;;;21.90
18704;BMP180;9481;48.796;9.210;2022-10-16T09:13:31;96739.00;;;21.90
18704;BMP180;9481;48.796;9.210;2022-10-16T09:16:19;96722.00;;;22.00
18704;BMP180;9481;48.796;9.210;2022-10-16T09:19:19;96711.00;;;22.00
18704;BMP180;9481;48.796;9.210;2022-10-16T09:21:46;96716.00;;;22.20
18704;BMP180;9481;48.796;9.210;2022-10-16T09:24:15;96721.00;;;22.30
18704;BMP180;9481;48.796;9.210;2022-10-16T09:26:42;96731.00;;;22.30
18704;BMP180;9481;48.796;9.210;2022-10-16T09:29:18;96726.00;;;22.40
18704;BMP180;9481;48.796;9.210;2022-10-16T09:31:47;96735.00;;;22.50
18704;BMP180;9481;48.796;9.210;2022-10-16T09:34:28;96740.00;;;22.60
18704;BMP180;9481;48.796;9.210;2022-10-16T09:36:57;96733.00;;;22.60
18704;BMP180;9481;48.796;9.210;2022-10-16T09:39:24;96740.00;;;22.70
18704;BMP180;9481;48.796;9.210;2022-10-16T09:41:51;96743.00;;;22.80
18704;BMP180;9481;48.796;9.210;2022-10-16T09:44:28;96755.00;;;22.90
18704;BMP180;9481;48.796;9.210;2022-10-16T09:47:39;96745.00;;;23.00
18704;BMP180;9481;48.796;9.210;2022-10-16T09:50:26;96756.00;;;23.10
18704;BMP180;9481;48.796;9.210;2022-10-16T09:53:11;96760.00;;;23.20
18704;BMP180;9481;48.796;9.210;2022-10-16T09:55:53;96754.00;;;23.40
18704;BMP180;9481;48.796;9.210;2022-10-16T09:58:22;96751.00;;;23.60
18704;BMP180;9481;48.796;9.210;2022-10-16T10:00:53;96748.00;;;23.80
18704;BMP180;9481;48.796;9.210;2022-10-16T10:03:40;96746.00;;;24.00
18704;BMP180;9481;48.796;9.210;2022-10-16T10:06:36;96754.00;;;24.10
18704;BMP180;9481;48.796;9.210;2022-10-16T10:09:17;96764.00;;;24.30
18704;BMP180;9481;48.796;9.210;2022-10-16T10:11:57;96753.00;;;24.40
18704;BMP180;9481;48.796;9.210;2022-10-16T10:14:37;96762.00;;;24.50
18704;BMP180;9481;48.796;9.210;2022-10-16T10:17:12;96749.00;;;24.50
18704;BMP180;9481;48.796;9.210;2022-10-16T10:19:47;96767.00;;;24.60
18704;BMP180;9481;48.796;9.210;2022-10-16T10:33:41;96764.00;;;24.90
18704;BMP180;9481;48.796;9.210;2022-10-16T10:45:18;96768.00;;;25.20
18704;BMP180;9481;48.796;9.210;2022-10-16T10:49:16;96768.00;;;25.30
18704;BMP180;9481;48.796;9.210;2022-10-16T10:52:11;96764.00;;;25.40
18704;BMP180;9481;48.796;9.210;2022-10-16T10:55:00;96765.00;;;25.50
18704;BMP180;9481;48.796;9.210;2022-10-16T10:57:40;96769.00;;;25.70
18704;BMP180;9481;48.796;9.210;2022-10-16T11:00:31;96773.00;;;25.80
18704;BMP180;9481;48.796;9.210;2022-10-16T11:09:09;96768.00;;;27.30
18704;BMP180;9481;48.796;9.210;2022-10-16T11:12:25;96768.00;;;28.50
18704;BMP180;9481;48.796;9.210;2022-10-16T11:14:52;96772.00;;;29.60
18704;BMP180;9481;48.796;9.210;2022-10-16T11:17:38;96768.00;;;30.30
18704;BMP180;9481;48.796;9.210;2022-10-16T11:25:39;96769.00;;;31.90
18704;BMP180;9481;48.796;9.210;2022-10-16T11:28:27;96768.00;;;31.50
18704;BMP180;9481;48.796;9.210;2022-10-16T11:31:08;96780.00;;;31.20
18704;BMP180;9481;48.796;9.210;2022-10-16T11:34:08;96767.00;;;30.80
18704;BMP180;9481;48.796;9.210;2022-10-16T11:39:33;96767.00;;;30.40
18704;BMP180;9481;48.796;9.210;2022-10-16T11:42:22;96775.00;;;30.60
18704;BMP180;9481;48.796;9.210;2022-10-16T11:47:48;96768.00;;;30.60
18704;BMP180;9481;48.796;9.210;2022-10-16T11:50:36;96771.00;;;30.50
18704;BMP180;9481;48.796;9.210;2022-10-16T11:53:46;96770.00;;;30.70
18704;BMP180;9481;48.796;9.210;2022-10-16T11:56:19;96773.00;;;30.80
18704;BMP180;9481;48.796;9.210;2022-10-16T11:59:19;96768.00;;;31.00
18704;BMP180;9481;48.796;9.210;2022-10-16T12:08:15;96758.00;;;33.90
18704;BMP180;9481;48.796;9.210;2022-10-16T12:10:45;96756.00;;;34.80
18704;BMP180;9481;48.796;9.210;2022-10-16T12:13:32;96757.00;;;35.80
18704;BMP180;9481;48.796;9.210;2022-10-16T12:18:47;96765.00;;;37.10
18704;BMP180;9481;48.796;9.210;2022-10-16T12:21:15;96769.00;;;37.30
18704;BMP180;9481;48.796;9.210;2022-10-16T12:23:52;96760.00;;;37.50
18704;BMP180;9481;48.796;9.210;2022-10-16T12:26:26;96773.00;;;38.00
18704;BMP180;9481;48.796;9.210;2022-10-16T12:28:54;96780.00;;;38.00
18704;BMP180;9481;48.796;9.210;2022-10-16T12:31:21;96780.00;;;38.00
18704;BMP180;9481;48.796;9.210;2022-10-16T12:34:03;96786.00;;;38.20
18704;BMP180;9481;48.796;9.210;2022-10-16T12:36:34;96784.00;;;38.50
18704;BMP180;9481;48.796;9.210;2022-10-16T12:39:01;96779.00;;;38.80
18704;BMP180;9481;48.796;9.210;2022-10-16T12:41:31;96780.00;;;39.00
18704;BMP180;9481;48.796;9.210;2022-10-16T12:43:58;96786.00;;;39.10
18704;BMP180;9481;48.796;9.210;2022-10-16T12:49:23;96783.00;;;39.60
18704;BMP180;9481;48.796;9.210;2022-10-16T12:51:55;96775.00;;;39.90
18704;BMP180;9481;48.796;9.210;2022-10-16T12:54:37;96782.00;;;39.50
18704;BMP180;9481;48.796;9.210;2022-10-16T12:57:53;96781.00;;;38.40
18704;BMP180;9481;48.796;9.210;2022-10-16T13:00:44;96787.00;;;37.20
18704;BMP180;9481;48.796;9.210;2022-10-16T13:03:34;96786.00;;;36.10
18704;BMP180;9481;48.796;9.210;2022-10-16T13:06:25;96792.00;;;35.10
18704;BMP180;9481;48.796;9.210;2022-10-16T13:09:21;96798.00;;;34.30
18704;BMP180;9481;48.796;9.210;2022-10-16T13:12:11;96799.00;;;33.70
18704;BMP180;9481;48.796;9.210;2022-10-16T13:20:51;96795.00;;;32.60
18704;BMP180;9481;48.796;9.210;2022-10-16T13:23:42;96790.00;;;32.40
18704;BMP180;9481;48.796;9.210;2022-10-16T13:26:34;96794.00;;;32.10
18704;BMP180;9481;48.796;9.210;2022-10-16T13:29:02;96803.00;;;31.80
18704;BMP180;9481;48.796;9.210;2022-10-16T13:31:29;96799.00;;;31.60
18704;BMP180;9481;48.796;9.210;2022-10-16T13:33:58;96803.00;;;31.30
18704;BMP180;9481;48.796;9.210;2022-10-16T13:36:35;96798.00;;;31.10
18704;BMP180;9481;48.796;9.210;2022-10-16T13:39:24;96797.00;;;30.90
18704;BMP180;9481;48.796;9.210;2022-10-16T13:42:20;96791.00;;;30.80
18704;BMP180;9481;48.796;9.210;2022-10-16T13:44:53;96788.00;;;30.90
18704;BMP180;9481;48.796;9.210;2022-10-16T13:47:28;96791.00;;;30.80
18704;BMP180;9481;48.796;9.210;2022-10-16T13:50:13;96789.00;;;30.70
18704;BMP180;9481;48.796;9.210;2022-10-16T13:52:39;96793.00;;;30.90
18704;BMP180;9481;48.796;9.210;2022-10-16T13:55:17;96795.00;;;30.90
18704;BMP180;9481;48.796;9.210;2022-10-16T13:57:43;96794.00;;;31.10
18704;BMP180;9481;48.796;9.210;2022-10-16T14:00:26;96796.00;;;31.20
18704;BMP180;9481;48.796;9.210;2022-10-16T14:03:05;96785.00;;;31.20
18704;BMP180;9481;48.796;9.210;2022-10-16T14:05:32;96795.00;;;31.10
18704;BMP180;9481;48.796;9.210;2022-10-16T14:07:59;96789.00;;;31.00
18704;BMP180;9481;48.796;9.210;2022-10-16T14:10:30;96785.00;;;30.70
18704;BMP180;9481;48.796;9.210;2022-10-16T14:13:00;96794.00;;;30.50
18704;BMP180;9481;48.796;9.210;2022-10-16T14:15:29;96800.00;;;30.20
18704;BMP180;9481;48.796;9.210;2022-10-16T14:17:55;96796.00;;;30.00
18704;BMP180;9481;48.796;9.210;2022-10-16T14:20:27;96794.00;;;29.70
18704;BMP180;9481;48.796;9.210;2022-10-16T14:25:46;96798.00;;;29.20
18704;BMP180;9481;48.796;9.210;2022-10-16T14:28:18;96805.00;;;28.90
18704;BMP180;9481;48.796;9.210;2022-10-16T14:30:58;96799.00;;;28.80
18704;BMP180;9481;48.796;9.210;2022-10-16T14:33:33;96806.00;;;28.60
18704;BMP180;9481;48.796;9.210;2022-10-16T14:36:09;96797.00;;;28.50
18704;BMP180;9481;48.796;9.210;2022-10-16T14:38:43;96808.00;;;28.40
18704;BMP180;9481;48.796;9.210;2022-10-16T14:41:13;96802.00;;;28.30
18704;BMP180;9481;48.796;9.210;2022-10-16T14:43:42;96803.00;;;28.20
18704;BMP180;9481;48.796;9.210;2022-10-16T14:46:16;96801.00;;;28.10
18704;BMP180;9481;48.796;9.210;2022-10-16T14:48:48;96806.00;;;28.10
18704;BMP180;9481;48.796;9.210;2022-10-16T14:51:17;96796.00;;;28.00
18704;BMP180;9481;48.796;9.210;2022-10-16T14:53:44;96807.00;;;28.00
18704;BMP180;9481;48.796;9.210;2022-10-16T14:56:25;96802.00;;;28.00
18704;BMP180;9481;48.796;9.210;2022-10-16T14:58:53;96809.00;;;28.20
18704;BMP180;9481;48.796;9.210;2022-10-16T15:01:20;96808.00;;;28.40
18704;BMP180;9481;48.796;9.210;2022-10-16T15:03:46;96813.00;;;28.60
18704;BMP180;9481;48.796;9.210;2022-10-16T15:06:15;96809.00;;;28.70
18704;BMP180;9481;48.796;9.210;2022-10-16T15:08:42;96815.00;;;28.70
18704;BMP180;9481;48.796;9.210;2022-10-16T15:11:18;96807.00;;;28.60
18704;BMP180;9481;48.796;9.210;2022-10-16T15:13:46;96807.00;;;28.50
18704;BMP180;9481;48.796;9.210;2022-10-16T15:16:15;96801.00;;;28.40
18704;BMP180;9481;48.796;9.210;2022-10-16T15:18:41;96811.00;;;28.30
18704;BMP180;9481;48.796;9.210;2022-10-16T15:21:24;96808.00;;;28.10
18704;BMP180;9481;48.796;9.210;2022-10-16T15:23:51;96801.00;;;28.00
18704;BMP180;9481;48.796;9.210;2022-10-16T15:26:17;96797.00;;;28.00
18704;BMP180;9481;48.796;9.210;2022-10-16T15:28:43;96807.00;;;27.90
18704;BMP180;9481;48.796;9.210;2022-10-16T15:31:09;96801.00;;;27.80
18704;BMP180;9481;48.796;9.210;2022-10-16T15:33:34;96806.00;;;27.70
18704;BMP180;9481;48.796;9.210;2022-10-16T15:36:01;96804.00;;;27.60
18704;BMP180;9481;48.796;9.210;2022-10-16T15:38:29;96807.00;;;27.50
18704;BMP180;9481;48.796;9.210;2022-10-16T15:40:56;96804.00;;;27.50
18704;BMP180;9481;48.796;9.210;2022-10-16T15:43:22;96803.00;;;27.40
18704;BMP180;9481;48.796;9.210;2022-10-16T15:48:26;96811.00;;;27.20
18704;BMP180;9481;48.796;9.210;2022-10-16T15:50:51;96809.00;;;27.10
18704;BMP180;9481;48.796;9.210;2022-10-16T15:53:17;96813.00;;;27.10
18704;BMP180;9481;48.796;9.210;2022-10-16T15:55:42;96820.00;;;27.00
18704;BMP180;9481;48.796;9.210;2022-10-16T15:58:08;96812.00;;;26.90
18704;BMP180;9481;48.796;9.210;2022-10-16T16:00:34;96821.00;;;26.90
18704;BMP180;9481;48.796;9.210;2022-10-16T16:02:59;96818.00;;;26.80
18704;BMP180;9481;48.796;9.210;2022-10-16T16:05:25;96831.00;;;26.70
18704;BMP180;9481;48.796;9.210;2022-10-16T16:07:52;96818.00;;;26.70
18704;BMP180;9481;48.796;9.210;2022-10-16T16:10:19;96810.00;;;26.60
18704;BMP180;9481;48.796;9.210;2022-10-16T16:12:47;96813.00;;;26.50
18704;BMP180;9481;48.796;9.210;2022-10-16T16:15:21;96810.00;;;26.50